Terminal Aerodrome Forecast
Issued by NWS Sioux Falls, SD

Home | Current Version | Previous Version | Text Only | Print | Product List | Glossary On
Versions: 1 2 3 4 5 6 7 8 9 10 11 12 13 14
334
FTUS43 KFSD 222320
TAFFSD
TAF
KFSD 222320Z 2300/2324 33006KT P6SM SCT250
     FM230200 VRB04KT P6SM FEW120
     FM231400 34008KT P6SM SKC
     FM231700 33013G19KT P6SM FEW040
     FM232200 36010KT P6SM SKC=

USA.gov is the U.S. government's official web portal to all federal, state and local government web resources and services.